< Typhoon 201705 2017 Season Typhoon 201707 >
Typhoon 201706 (KULAP)
General InformationTrack Information on Google MapsDetailed Wind InformationForecast History on Google MapsAccess Analytics MapList of All Images || NewsDisaster Info.WeblogTrackbackTyphoon FrontTwiphoonTyphoon Now!Typhoon ImaginationJMA Disaster Info. XMLResourceGoogle EarthGE AnimationAtom FeedGeoJSON
Detalied Best Track (Time Zone = UTC)
Year Month Day Hour Lat. Long. Pressure (hPa) Wind (kt) Class Image Chart
2017 7 20 00 23.0 178.1 1012 0 2 Image Chart
2017 7 20 06 23.4 177.7 1012 0 2 Image Chart
2017 7 20 12 24.0 177.4 1012 0 2 Image Chart
2017 7 20 18 24.6 177.2 1010 0 2 Image Chart
2017 7 21 00 25.2 177.1 1010 0 2 Image Chart
2017 7 21 06 26.4 177.3 1006 35 3 Image Chart
2017 7 21 12 28.2 176.8 1006 35 3 Image Chart
2017 7 21 18 30.3 175.1 1004 40 3 Image Chart
2017 7 22 00 30.5 172.2 1004 40 3 Image Chart
2017 7 22 06 30.0 170.6 1004 40 3 Image Chart
2017 7 22 12 30.0 169.6 1004 40 3 Image Chart
2017 7 22 18 30.4 168.3 1004 40 3 Image Chart
2017 7 23 00 30.6 167.3 1004 40 3 Image Chart
2017 7 23 06 30.8 166.5 1002 40 3 Image Chart
2017 7 23 12 31.1 165.5 1002 40 3 Image Chart
2017 7 23 18 31.4 164.3 1002 40 3 Image Chart
2017 7 24 00 31.9 163.3 1002 40 3 Image Chart
2017 7 24 06 32.6 161.7 1002 40 3 Image Chart
2017 7 24 12 33.0 160.1 1002 40 3 Image Chart
2017 7 24 18 33.2 158.3 1002 35 3 Image Chart
2017 7 25 00 33.0 156.5 1002 35 3 Image Chart
2017 7 25 06 32.8 155.0 1002 35 3 Image Chart
2017 7 25 12 32.3 153.7 1002 35 3 Image Chart
2017 7 25 18 32.0 152.3 1004 0 2 Image Chart
2017 7 26 00 31.7 151.1 1004 0 2 Image Chart
2017 7 26 06 31.2 149.9 1002 0 2 Image Chart
2017 7 26 12 30.2 148.8 1002 0 2 Image Chart
2017 7 26 18 29.2 147.8 1002 0 2 Image Chart
2017 7 27 00 28.1 147.1 1002 0 2 Image Chart
2017 7 27 06 26.9 147.5 1002 0 2 Image Chart
2017 7 27 12 25.9 148.5 1002 0 2 Image Chart
2017 7 27 18 26.3 149.0 1002 0 2 Image Chart
2017 7 28 00 27.1 149.2 1002 0 2 Image Chart
Japan Meteorological Agency Best Track Data | Correction Date : 2017-09-04
< Typhoon 201705 2017 Season Typhoon 201707 >

Help